createdAt,value
2023-05-15T00:08:04.609Z,12
2023-05-15T00:18:04.880Z,11.8
2023-05-15T00:38:05.166Z,11.5
2023-05-15T00:48:06.003Z,11.4
2023-05-15T00:58:06.713Z,11.3
2023-05-15T01:08:07.794Z,11.3
2023-05-15T01:28:09.448Z,11.2
2023-05-15T01:38:10.159Z,11.1
2023-05-15T01:48:10.589Z,11.3
2023-05-15T01:58:10.744Z,11.2
2023-05-15T02:08:11.236Z,11.1
2023-05-15T02:28:12.408Z,10.9
2023-05-15T02:38:12.833Z,10.9
2023-05-15T02:48:13.914Z,10.9
2023-05-15T02:58:14.604Z,10.7
2023-05-15T03:08:15.575Z,10.7
2023-05-15T03:18:17.218Z,10.5
2023-05-15T03:28:16.572Z,10.4
2023-05-15T03:38:17.536Z,10.3
2023-05-15T03:48:18.503Z,10.3
2023-05-15T03:58:18.953Z,10.4
2023-05-15T04:08:19.640Z,10.5
2023-05-15T04:18:20.565Z,10.7
2023-05-15T04:28:21.298Z,11.1
2023-05-15T04:38:21.475Z,11.2
2023-05-15T04:48:21.716Z,11.3
2023-05-15T04:58:22.577Z,11.1
2023-05-15T05:08:23.314Z,11.1
2023-05-15T05:18:23.495Z,10.9
2023-05-15T05:28:23.636Z,10.9
2023-05-15T05:38:24.235Z,11
2023-05-15T05:48:24.526Z,11.1
2023-05-15T05:58:26.355Z,11.1
2023-05-15T06:08:26.611Z,11.2
2023-05-15T06:28:28.169Z,11.4
2023-05-15T06:38:29.207Z,11.5
2023-05-15T06:48:29.690Z,11.8
2023-05-15T06:58:30.044Z,12
2023-05-15T07:08:30.834Z,12.1
2023-05-15T07:18:31.606Z,12.5
2023-05-15T07:28:31.985Z,12.4
2023-05-15T07:38:33.085Z,12.5
2023-05-15T07:48:34.103Z,12.7
2023-05-15T07:58:34.753Z,12.9
2023-05-15T08:08:35.685Z,12.8
2023-05-15T08:18:36.695Z,13.1
2023-05-15T08:28:37.105Z,13.3
2023-05-15T08:38:37.299Z,13.9
2023-05-15T08:48:37.950Z,14.6
2023-05-15T08:58:38.094Z,15.5
2023-05-15T09:08:38.819Z,16
2023-05-15T09:18:39.037Z,16.5
2023-05-15T09:28:39.198Z,16.9
2023-05-15T09:38:40.028Z,17.4
2023-05-15T09:48:40.143Z,17.8
2023-05-15T09:58:40.631Z,18.1
2023-05-15T10:08:41.555Z,18.1
2023-05-15T10:28:43.487Z,19.2
2023-05-15T10:38:42.375Z,19.4
2023-05-15T10:48:43.001Z,19.3
2023-05-15T10:58:43.313Z,19.4
2023-05-15T11:08:43.572Z,19.4
2023-05-15T11:18:44.109Z,20.2
2023-05-15T11:28:44.634Z,19.5
2023-05-15T11:38:45.388Z,19.6
2023-05-15T11:48:45.665Z,20.3
2023-05-15T12:08:46.267Z,21
2023-05-15T12:18:46.690Z,21.4
2023-05-15T12:28:47.329Z,21
2023-05-15T12:38:47.730Z,19.9
2023-05-15T12:48:48.586Z,20.9
2023-05-15T12:58:49.254Z,20.4
2023-05-15T13:08:49.418Z,20.8
2023-05-15T13:18:50.053Z,21.5
2023-05-15T13:28:50.292Z,21.4
2023-05-15T13:38:51.169Z,21.6
2023-05-15T13:48:51.902Z,20.7
2023-05-15T13:58:52.820Z,20.4
2023-05-15T14:08:53.244Z,19.6
2023-05-15T14:18:53.411Z,19.3
2023-05-15T14:38:54.049Z,19.4
2023-05-15T14:58:54.969Z,19.7
2023-05-15T15:08:55.654Z,19.3
2023-05-15T15:18:55.888Z,19.6
2023-05-15T15:28:56.481Z,19.4
2023-05-15T15:38:56.768Z,18.9
2023-05-15T15:48:57.535Z,18.7
2023-05-15T15:58:58.311Z,18.5
2023-05-15T16:08:58.982Z,18.4
2023-05-15T16:18:59.961Z,18.2
2023-05-15T16:29:00.260Z,17.9
2023-05-15T16:39:00.590Z,17.8
2023-05-15T16:49:01.584Z,17.6
2023-05-15T17:09:03.029Z,17.3
2023-05-15T17:19:03.208Z,16.9
2023-05-15T17:29:03.848Z,16.5
2023-05-15T17:39:04.512Z,16.3
2023-05-15T17:39:26.424Z,16.3
2023-05-15T17:49:10.870Z,16.1
2023-05-15T18:09:11.484Z,15.7
2023-05-15T18:29:13.169Z,15.4
2023-05-15T18:49:15.318Z,15.2
2023-05-15T19:09:16.540Z,15.1
2023-05-15T19:29:17.613Z,14.5
2023-05-15T19:49:18.130Z,14
2023-05-15T20:09:19.032Z,13.8
2023-05-15T20:39:20.554Z,13.6
2023-05-15T20:49:21.483Z,13.6
2023-05-15T21:09:22.645Z,13.4
2023-05-15T21:29:23.408Z,13.3
2023-05-15T21:49:24.420Z,13.1
2023-05-15T22:09:25.120Z,12.2
2023-05-15T22:29:26.764Z,11.7
2023-05-15T23:09:28.801Z,10.8
